sensor_id;sensor_type;location;lat;lon;timestamp;P1;P2;P0
30713;PMS7003;17465;47.934;33.430;2023-11-21T00:02:21;24.00;24.00;15.00
30713;PMS7003;17465;47.934;33.430;2023-11-21T00:04:52;21.25;19.00;10.25
30713;PMS7003;17465;47.934;33.430;2023-11-21T00:07:22;29.00;23.75;9.00
30713;PMS7003;17465;47.934;33.430;2023-11-21T00:09:54;23.50;19.50;8.25
30713;PMS7003;17465;47.934;33.430;2023-11-21T00:12:31;24.50;23.75;15.50
30713;PMS7003;17465;47.934;33.430;2023-11-21T00:15:08;26.50;24.50;16.00
30713;PMS7003;17465;47.934;33.430;2023-11-21T00:17:41;28.00;26.00;13.50
30713;PMS7003;17465;47.934;33.430;2023-11-21T00:20:12;28.50;27.25;13.00
30713;PMS7003;17465;47.934;33.430;2023-11-21T00:22:46;33.50;29.75;12.75
30713;PMS7003;17465;47.934;33.430;2023-11-21T00:25:18;21.50;21.50;11.50
30713;PMS7003;17465;47.934;33.430;2023-11-21T00:27:48;22.00;18.25;11.25
30713;PMS7003;17465;47.934;33.430;2023-11-21T00:30:19;31.00;27.50;14.75
30713;PMS7003;17465;47.934;33.430;2023-11-21T00:32:49;40.50;32.75;19.00
30713;PMS7003;17465;47.934;33.430;2023-11-21T00:35:20;32.25;22.25;15.75
30713;PMS7003;17465;47.934;33.430;2023-11-21T00:37:50;33.25;31.25;17.25
30713;PMS7003;17465;47.934;33.430;2023-11-21T00:40:23;43.25;38.00;25.00
30713;PMS7003;17465;47.934;33.430;2023-11-21T00:42:54;38.25;36.00;18.75
30713;PMS7003;17465;47.934;33.430;2023-11-21T00:45:24;38.75;38.25;25.00
30713;PMS7003;17465;47.934;33.430;2023-11-21T00:47:54;39.50;32.50;21.25
30713;PMS7003;17465;47.934;33.430;2023-11-21T00:50:25;44.25;41.75;28.25
30713;PMS7003;17465;47.934;33.430;2023-11-21T00:52:57;48.75;42.50;29.50
30713;PMS7003;17465;47.934;33.430;2023-11-21T00:55:27;63.00;54.50;38.50
30713;PMS7003;17465;47.934;33.430;2023-11-21T00:57:58;72.25;58.75;41.75
30713;PMS7003;17465;47.934;33.430;2023-11-21T01:00:30;69.00;56.50;40.25
30713;PMS7003;17465;47.934;33.430;2023-11-21T01:03:05;72.00;60.00;42.25
30713;PMS7003;17465;47.934;33.430;2023-11-21T01:05:35;72.00;59.75;43.00
30713;PMS7003;17465;47.934;33.430;2023-11-21T01:08:05;63.75;54.00;40.50
30713;PMS7003;17465;47.934;33.430;2023-11-21T01:10:39;65.00;55.25;41.25
30713;PMS7003;17465;47.934;33.430;2023-11-21T01:13:09;65.25;55.00;38.00
30713;PMS7003;17465;47.934;33.430;2023-11-21T01:15:40;61.00;49.25;35.00
30713;PMS7003;17465;47.934;33.430;2023-11-21T01:18:10;48.00;40.00;28.00
30713;PMS7003;17465;47.934;33.430;2023-11-21T01:20:43;55.75;44.00;29.75
30713;PMS7003;17465;47.934;33.430;2023-11-21T01:23:13;56.00;48.25;32.25
30713;PMS7003;17465;47.934;33.430;2023-11-21T01:25:45;83.25;64.25;47.00
30713;PMS7003;17465;47.934;33.430;2023-11-21T01:28:16;69.50;58.25;40.75
30713;PMS7003;17465;47.934;33.430;2023-11-21T01:30:46;73.00;61.50;44.25
30713;PMS7003;17465;47.934;33.430;2023-11-21T01:33:17;67.75;57.00;42.00
30713;PMS7003;17465;47.934;33.430;2023-11-21T01:35:48;70.75;58.50;44.25
30713;PMS7003;17465;47.934;33.430;2023-11-21T01:38:26;73.75;58.50;42.75
30713;PMS7003;17465;47.934;33.430;2023-11-21T01:40:58;67.00;56.75;42.75
30713;PMS7003;17465;47.934;33.430;2023-11-21T01:43:30;73.50;61.25;44.75
30713;PMS7003;17465;47.934;33.430;2023-11-21T01:46:00;81.75;66.25;48.50
30713;PMS7003;17465;47.934;33.430;2023-11-21T01:48:31;76.50;62.25;44.25
30713;PMS7003;17465;47.934;33.430;2023-11-21T01:51:05;67.25;57.00;40.75
30713;PMS7003;17465;47.934;33.430;2023-11-21T01:53:36;73.50;61.25;42.50
30713;PMS7003;17465;47.934;33.430;2023-11-21T01:56:10;85.25;67.75;49.50
30713;PMS7003;17465;47.934;33.430;2023-11-21T01:58:42;85.00;68.25;48.00
30713;PMS7003;17465;47.934;33.430;2023-11-21T02:01:13;78.50;63.50;45.00
30713;PMS7003;17465;47.934;33.430;2023-11-21T02:03:44;78.50;63.75;46.25
30713;PMS7003;17465;47.934;33.430;2023-11-21T02:06:14;81.00;64.75;47.50
30713;PMS7003;17465;47.934;33.430;2023-11-21T02:08:44;71.50;60.75;42.00
30713;PMS7003;17465;47.934;33.430;2023-11-21T02:11:19;78.00;62.75;43.50
30713;PMS7003;17465;47.934;33.430;2023-11-21T02:13:50;82.75;65.75;47.00
30713;PMS7003;17465;47.934;33.430;2023-11-21T02:16:26;70.00;58.50;40.50
30713;PMS7003;17465;47.934;33.430;2023-11-21T02:18:52;72.50;60.75;44.75
30713;PMS7003;17465;47.934;33.430;2023-11-21T02:21:22;69.25;57.75;43.50
30713;PMS7003;17465;47.934;33.430;2023-11-21T02:23:54;74.50;61.25;44.75
30713;PMS7003;17465;47.934;33.430;2023-11-21T02:26:25;78.50;63.00;44.75
30713;PMS7003;17465;47.934;33.430;2023-11-21T02:28:56;59.50;49.00;33.00
30713;PMS7003;17465;47.934;33.430;2023-11-21T02:31:27;52.75;47.25;27.50
30713;PMS7003;17465;47.934;33.430;2023-11-21T02:33:58;67.50;53.50;33.25
30713;PMS7003;17465;47.934;33.430;2023-11-21T02:36:28;57.00;50.75;33.00
30713;PMS7003;17465;47.934;33.430;2023-11-21T02:38:58;59.75;50.00;31.50
30713;PMS7003;17465;47.934;33.430;2023-11-21T02:41:29;55.75;46.00;28.50
30713;PMS7003;17465;47.934;33.430;2023-11-21T02:44:00;56.50;45.50;27.00
30713;PMS7003;17465;47.934;33.430;2023-11-21T02:46:34;46.50;43.00;29.00
30713;PMS7003;17465;47.934;33.430;2023-11-21T02:49:05;48.50;44.25;26.50
30713;PMS7003;17465;47.934;33.430;2023-11-21T02:51:36;56.50;48.25;29.25
30713;PMS7003;17465;47.934;33.430;2023-11-21T02:54:07;43.25;42.00;25.75
30713;PMS7003;17465;47.934;33.430;2023-11-21T02:56:38;52.25;44.75;25.50
30713;PMS7003;17465;47.934;33.430;2023-11-21T02:59:08;46.75;42.00;26.00
30713;PMS7003;17465;47.934;33.430;2023-11-21T03:01:38;48.50;43.50;26.00
30713;PMS7003;17465;47.934;33.430;2023-11-21T03:04:09;49.25;42.00;23.25
30713;PMS7003;17465;47.934;33.430;2023-11-21T03:06:39;45.50;39.00;23.50
30713;PMS7003;17465;47.934;33.430;2023-11-21T03:09:10;52.50;43.00;25.25
30713;PMS7003;17465;47.934;33.430;2023-11-21T03:11:40;48.50;42.75;22.75
30713;PMS7003;17465;47.934;33.430;2023-11-21T03:14:11;40.00;37.50;19.25
30713;PMS7003;17465;47.934;33.430;2023-11-21T03:16:42;49.25;40.00;23.50
30713;PMS7003;17465;47.934;33.430;2023-11-21T03:19:15;45.50;41.00;22.50
30713;PMS7003;17465;47.934;33.430;2023-11-21T03:21:44;45.50;40.25;22.50
30713;PMS7003;17465;47.934;33.430;2023-11-21T03:24:15;30.00;26.50;10.50
30713;PMS7003;17465;47.934;33.430;2023-11-21T03:26:50;41.50;35.25;19.00
30713;PMS7003;17465;47.934;33.430;2023-11-21T03:29:20;49.50;41.25;20.25
30713;PMS7003;17465;47.934;33.430;2023-11-21T03:31:50;40.25;35.75;19.00
30713;PMS7003;17465;47.934;33.430;2023-11-21T03:34:26;38.75;35.75;18.00
30713;PMS7003;17465;47.934;33.430;2023-11-21T03:36:57;41.50;36.50;22.00
30713;PMS7003;17465;47.934;33.430;2023-11-21T03:39:27;37.75;36.25;20.25
30713;PMS7003;17465;47.934;33.430;2023-11-21T03:41:58;38.50;37.00;20.25
30713;PMS7003;17465;47.934;33.430;2023-11-21T03:44:28;45.00;41.00;25.50
30713;PMS7003;17465;47.934;33.430;2023-11-21T03:46:59;46.00;36.25;19.50
30713;PMS7003;17465;47.934;33.430;2023-11-21T03:49:30;37.00;32.25;16.25
30713;PMS7003;17465;47.934;33.430;2023-11-21T03:52:00;36.25;34.50;16.50
30713;PMS7003;17465;47.934;33.430;2023-11-21T03:54:30;36.50;33.75;19.50
30713;PMS7003;17465;47.934;33.430;2023-11-21T03:57:01;38.75;36.00;20.25
30713;PMS7003;17465;47.934;33.430;2023-11-21T03:59:31;42.00;37.25;18.50
30713;PMS7003;17465;47.934;33.430;2023-11-21T04:02:03;39.50;34.00;19.25
30713;PMS7003;17465;47.934;33.430;2023-11-21T04:04:34;26.50;25.25;12.00
30713;PMS7003;17465;47.934;33.430;2023-11-21T04:07:07;32.75;27.25;14.50
30713;PMS7003;17465;47.934;33.430;2023-11-21T04:09:37;32.50;28.50;16.50
30713;PMS7003;17465;47.934;33.430;2023-11-21T04:12:08;29.75;28.75;15.50
30713;PMS7003;17465;47.934;33.430;2023-11-21T04:14:38;42.75;38.00;17.50
30713;PMS7003;17465;47.934;33.430;2023-11-21T04:17:08;33.25;32.00;14.75
30713;PMS7003;17465;47.934;33.430;2023-11-21T04:19:39;36.25;28.75;14.00
30713;PMS7003;17465;47.934;33.430;2023-11-21T04:22:09;28.75;27.50;16.25
30713;PMS7003;17465;47.934;33.430;2023-11-21T04:24:39;41.00;35.25;18.00
30713;PMS7003;17465;47.934;33.430;2023-11-21T04:27:10;50.25;39.75;25.00
30713;PMS7003;17465;47.934;33.430;2023-11-21T04:29:43;39.50;34.75;17.25
30713;PMS7003;17465;47.934;33.430;2023-11-21T04:32:19;35.25;31.00;15.25
30713;PMS7003;17465;47.934;33.430;2023-11-21T04:34:46;32.75;30.50;16.75
30713;PMS7003;17465;47.934;33.430;2023-11-21T04:37:17;39.00;36.75;22.00
30713;PMS7003;17465;47.934;33.430;2023-11-21T04:39:48;35.25;26.75;12.25
30713;PMS7003;17465;47.934;33.430;2023-11-21T04:42:21;29.75;25.50;8.75
30713;PMS7003;17465;47.934;33.430;2023-11-21T04:44:52;29.75;27.00;10.75
30713;PMS7003;17465;47.934;33.430;2023-11-21T04:47:22;28.75;23.75;11.00
30713;PMS7003;17465;47.934;33.430;2023-11-21T04:49:59;31.25;24.25;9.25
30713;PMS7003;17465;47.934;33.430;2023-11-21T04:52:24;27.75;24.50;9.00
30713;PMS7003;17465;47.934;33.430;2023-11-21T04:54:54;28.25;25.75;6.00
30713;PMS7003;17465;47.934;33.430;2023-11-21T04:57:24;22.75;18.25;11.75
30713;PMS7003;17465;47.934;33.430;2023-11-21T04:59:55;33.75;30.25;10.00
30713;PMS7003;17465;47.934;33.430;2023-11-21T05:02:26;30.50;25.25;13.00
30713;PMS7003;17465;47.934;33.430;2023-11-21T05:05:00;40.50;38.00;16.00
30713;PMS7003;17465;47.934;33.430;2023-11-21T05:07:32;35.00;30.50;17.25
30713;PMS7003;17465;47.934;33.430;2023-11-21T05:10:07;28.75;27.25;12.50
30713;PMS7003;17465;47.934;33.430;2023-11-21T05:12:38;27.75;27.75;13.50
30713;PMS7003;17465;47.934;33.430;2023-11-21T05:15:14;24.25;20.25;9.00
30713;PMS7003;17465;47.934;33.430;2023-11-21T05:17:45;34.25;28.50;11.25
30713;PMS7003;17465;47.934;33.430;2023-11-21T05:20:16;40.00;33.50;16.00
30713;PMS7003;17465;47.934;33.430;2023-11-21T05:22:46;36.75;30.25;10.50
30713;PMS7003;17465;47.934;33.430;2023-11-21T05:25:17;32.75;28.50;15.00
30713;PMS7003;17465;47.934;33.430;2023-11-21T05:27:47;37.75;34.50;16.75
30713;PMS7003;17465;47.934;33.430;2023-11-21T05:30:18;37.00;32.50;12.00
30713;PMS7003;17465;47.934;33.430;2023-11-21T05:32:48;31.00;26.75;9.00
30713;PMS7003;17465;47.934;33.430;2023-11-21T05:35:19;33.00;29.00;12.25
30713;PMS7003;17465;47.934;33.430;2023-11-21T05:37:49;34.75;33.25;16.25
30713;PMS7003;17465;47.934;33.430;2023-11-21T05:40:19;36.00;34.75;17.50
30713;PMS7003;17465;47.934;33.430;2023-11-21T05:42:50;44.25;40.50;21.50
30713;PMS7003;17465;47.934;33.430;2023-11-21T05:45:21;44.00;39.75;20.25
30713;PMS7003;17465;47.934;33.430;2023-11-21T05:47:51;43.25;40.25;22.25
30713;PMS7003;17465;47.934;33.430;2023-11-21T05:50:21;40.75;37.50;16.75
30713;PMS7003;17465;47.934;33.430;2023-11-21T05:52:52;48.75;40.00;19.50
30713;PMS7003;17465;47.934;33.430;2023-11-21T05:55:22;45.00;39.50;21.25
30713;PMS7003;17465;47.934;33.430;2023-11-21T05:57:53;45.50;40.00;22.75
30713;PMS7003;17465;47.934;33.430;2023-11-21T06:00:24;38.50;37.50;21.00
30713;PMS7003;17465;47.934;33.430;2023-11-21T06:02:55;47.00;39.25;19.50
30713;PMS7003;17465;47.934;33.430;2023-11-21T06:05:25;45.50;40.00;21.25
30713;PMS7003;17465;47.934;33.430;2023-11-21T06:07:56;30.75;30.75;15.75
30713;PMS7003;17465;47.934;33.430;2023-11-21T06:10:29;36.00;33.50;17.00
30713;PMS7003;17465;47.934;33.430;2023-11-21T06:12:59;35.75;34.75;18.25
30713;PMS7003;17465;47.934;33.430;2023-11-21T06:15:31;35.25;28.25;14.25
30713;PMS7003;17465;47.934;33.430;2023-11-21T06:18:02;31.25;28.50;15.00
30713;PMS7003;17465;47.934;33.430;2023-11-21T06:20:32;41.00;35.00;18.25
30713;PMS7003;17465;47.934;33.430;2023-11-21T06:23:03;33.00;31.00;20.00
30713;PMS7003;17465;47.934;33.430;2023-11-21T06:25:34;42.25;35.00;19.25
30713;PMS7003;17465;47.934;33.430;2023-11-21T06:28:05;38.75;37.50;21.50
30713;PMS7003;17465;47.934;33.430;2023-11-21T06:30:35;46.50;42.25;24.00
30713;PMS7003;17465;47.934;33.430;2023-11-21T06:33:07;30.00;24.75;10.25
30713;PMS7003;17465;47.934;33.430;2023-11-21T06:35:37;46.75;41.25;23.75
30713;PMS7003;17465;47.934;33.430;2023-11-21T06:38:11;42.00;39.50;25.25
30713;PMS7003;17465;47.934;33.430;2023-11-21T06:40:48;40.75;38.00;22.75
30713;PMS7003;17465;47.934;33.430;2023-11-21T06:43:29;44.75;42.50;25.75
30713;PMS7003;17465;47.934;33.430;2023-11-21T06:45:59;44.25;38.25;15.75
30713;PMS7003;17465;47.934;33.430;2023-11-21T06:48:30;43.50;38.75;23.00
30713;PMS7003;17465;47.934;33.430;2023-11-21T06:51:05;43.50;40.75;22.75
30713;PMS7003;17465;47.934;33.430;2023-11-21T06:53:39;52.25;43.75;28.25
30713;PMS7003;17465;47.934;33.430;2023-11-21T06:56:22;47.00;40.75;26.75
30713;PMS7003;17465;47.934;33.430;2023-11-21T06:58:51;44.25;41.00;26.75
30713;PMS7003;17465;47.934;33.430;2023-11-21T07:01:21;48.00;41.25;26.75
30713;PMS7003;17465;47.934;33.430;2023-11-21T07:03:55;56.00;46.50;29.75
30713;PMS7003;17465;47.934;33.430;2023-11-21T07:06:37;45.25;39.50;24.75
30713;PMS7003;17465;47.934;33.430;2023-11-21T07:11:44;45.25;40.00;25.25
30713;PMS7003;17465;47.934;33.430;2023-11-21T07:14:19;44.50;40.25;27.00
30713;PMS7003;17465;47.934;33.430;2023-11-21T07:16:55;48.25;41.75;26.25
30713;PMS7003;17465;47.934;33.430;2023-11-21T07:19:31;36.00;28.25;14.00
30713;PMS7003;17465;47.934;33.430;2023-11-21T07:22:06;40.50;38.00;19.00
30713;PMS7003;17465;47.934;33.430;2023-11-21T07:24:39;47.50;42.50;24.00
30713;PMS7003;17465;47.934;33.430;2023-11-21T07:27:13;41.50;38.50;20.75
30713;PMS7003;17465;47.934;33.430;2023-11-21T07:30:03;54.75;43.00;23.50
30713;PMS7003;17465;47.934;33.430;2023-11-21T07:32:40;46.75;39.75;22.50
30713;PMS7003;17465;47.934;33.430;2023-11-21T07:35:35;46.25;36.25;22.00
30713;PMS7003;17465;47.934;33.430;2023-11-21T07:38:07;41.50;39.75;24.50
30713;PMS7003;17465;47.934;33.430;2023-11-21T07:40:38;41.25;37.00;20.00
30713;PMS7003;17465;47.934;33.430;2023-11-21T07:43:10;49.50;42.50;25.00
30713;PMS7003;17465;47.934;33.430;2023-11-21T07:45:58;50.75;43.50;26.75
30713;PMS7003;17465;47.934;33.430;2023-11-21T07:48:54;44.25;38.25;23.50
30713;PMS7003;17465;47.934;33.430;2023-11-21T07:51:13;50.50;43.25;26.00
30713;PMS7003;17465;47.934;33.430;2023-11-21T07:53:45;44.75;40.00;23.75
30713;PMS7003;17465;47.934;33.430;2023-11-21T07:56:15;33.00;30.75;17.00
30713;PMS7003;17465;47.934;33.430;2023-11-21T07:58:51;47.00;38.00;21.00
30713;PMS7003;17465;47.934;33.430;2023-11-21T08:01:25;42.00;39.25;22.50
30713;PMS7003;17465;47.934;33.430;2023-11-21T08:04:08;42.00;39.50;21.00
30713;PMS7003;17465;47.934;33.430;2023-11-21T08:06:36;32.50;32.00;17.00
30713;PMS7003;17465;47.934;33.430;2023-11-21T08:09:14;30.50;27.25;14.00
30713;PMS7003;17465;47.934;33.430;2023-11-21T08:11:49;46.00;39.00;16.25
30713;PMS7003;17465;47.934;33.430;2023-11-21T08:14:34;43.25;37.50;17.75
30713;PMS7003;17465;47.934;33.430;2023-11-21T08:16:53;37.75;32.75;18.50
30713;PMS7003;17465;47.934;33.430;2023-11-21T08:19:32;50.75;43.25;21.50
30713;PMS7003;17465;47.934;33.430;2023-11-21T08:21:58;32.25;30.25;17.75
30713;PMS7003;17465;47.934;33.430;2023-11-21T08:24:36;43.50;38.75;21.50
30713;PMS7003;17465;47.934;33.430;2023-11-21T08:27:25;48.25;35.75;17.50
30713;PMS7003;17465;47.934;33.430;2023-11-21T08:29:53;42.00;37.75;19.75
30713;PMS7003;17465;47.934;33.430;2023-11-21T08:32:34;40.00;34.75;13.00
30713;PMS7003;17465;47.934;33.430;2023-11-21T08:35:27;40.50;39.75;17.25
30713;PMS7003;17465;47.934;33.430;2023-11-21T08:38:00;40.75;37.00;18.25
30713;PMS7003;17465;47.934;33.430;2023-11-21T08:40:42;41.00;36.00;21.00
30713;PMS7003;17465;47.934;33.430;2023-11-21T08:43:14;36.25;34.50;19.75
30713;PMS7003;17465;47.934;33.430;2023-11-21T08:45:55;29.25;26.50;12.25
30713;PMS7003;17465;47.934;33.430;2023-11-21T08:48:27;35.25;32.75;17.25
30713;PMS7003;17465;47.934;33.430;2023-11-21T08:50:59;32.50;30.00;17.50
30713;PMS7003;17465;47.934;33.430;2023-11-21T08:53:33;40.00;38.75;17.00
30713;PMS7003;17465;47.934;33.430;2023-11-21T08:56:06;34.00;29.25;15.25
30713;PMS7003;17465;47.934;33.430;2023-11-21T08:58:36;36.00;33.50;16.75
30713;PMS7003;17465;47.934;33.430;2023-11-21T09:01:09;33.75;30.00;17.25
30713;PMS7003;17465;47.934;33.430;2023-11-21T09:03:48;27.00;26.50;13.00
30713;PMS7003;17465;47.934;33.430;2023-11-21T09:06:40;37.50;32.00;16.00
30713;PMS7003;17465;47.934;33.430;2023-11-21T09:09:24;29.25;25.25;13.00
30713;PMS7003;17465;47.934;33.430;2023-11-21T09:12:07;30.50;27.25;14.75
30713;PMS7003;17465;47.934;33.430;2023-11-21T09:15:14;32.75;29.00;15.75
30713;PMS7003;17465;47.934;33.430;2023-11-21T09:17:47;31.50;28.00;14.25
30713;PMS7003;17465;47.934;33.430;2023-11-21T09:20:21;18.25;17.25;7.00
30713;PMS7003;17465;47.934;33.430;2023-11-21T09:22:54;29.50;29.00;17.25
30713;PMS7003;17465;47.934;33.430;2023-11-21T09:25:29;28.50;27.75;15.75
30713;PMS7003;17465;47.934;33.430;2023-11-21T09:27:59;28.25;25.25;14.00
30713;PMS7003;17465;47.934;33.430;2023-11-21T09:30:30;31.75;27.75;13.50
30713;PMS7003;17465;47.934;33.430;2023-11-21T09:33:01;27.25;26.50;14.75
30713;PMS7003;17465;47.934;33.430;2023-11-21T09:35:32;25.67;20.67;12.00
30713;PMS7003;17465;47.934;33.430;2023-11-21T09:38:02;27.00;25.25;13.25
30713;PMS7003;17465;47.934;33.430;2023-11-21T09:40:32;29.25;26.50;13.75
30713;PMS7003;17465;47.934;33.430;2023-11-21T09:43:07;31.00;26.25;15.00
30713;PMS7003;17465;47.934;33.430;2023-11-21T09:45:46;21.25;21.25;11.00
30713;PMS7003;17465;47.934;33.430;2023-11-21T09:48:28;27.67;21.33;10.67
30713;PMS7003;17465;47.934;33.430;2023-11-21T09:50:59;26.25;24.75;14.25
30713;PMS7003;17465;47.934;33.430;2023-11-21T09:53:32;28.75;26.00;14.25
30713;PMS7003;17465;47.934;33.430;2023-11-21T09:56:07;23.67;21.00;11.33
30713;PMS7003;17465;47.934;33.430;2023-11-21T09:58:52;24.25;22.00;11.25
30713;PMS7003;17465;47.934;33.430;2023-11-21T10:01:31;31.00;25.00;12.00
30713;PMS7003;17465;47.934;33.430;2023-11-21T10:04:03;27.25;27.25;14.00
30713;PMS7003;17465;47.934;33.430;2023-11-21T10:06:39;20.75;18.75;9.50
30713;PMS7003;17465;47.934;33.430;2023-11-21T10:09:10;27.50;24.75;12.50
30713;PMS7003;17465;47.934;33.430;2023-11-21T10:11:46;25.50;21.25;11.25
30713;PMS7003;17465;47.934;33.430;2023-11-21T10:14:32;31.25;28.25;16.00
30713;PMS7003;17465;47.934;33.430;2023-11-21T10:17:07;29.25;26.00;15.00
30713;PMS7003;17465;47.934;33.430;2023-11-21T10:26:12;34.50;29.00;13.50
30713;PMS7003;17465;47.934;33.430;2023-11-21T10:29:00;37.25;32.50;16.75
30713;PMS7003;17465;47.934;33.430;2023-11-21T10:31:32;27.75;27.50;16.50
30713;PMS7003;17465;47.934;33.430;2023-11-21T10:36:54;33.25;28.50;14.25
30713;PMS7003;17465;47.934;33.430;2023-11-21T10:39:20;25.00;22.50;13.25
30713;PMS7003;17465;47.934;33.430;2023-11-21T10:41:51;32.00;29.25;13.00
30713;PMS7003;17465;47.934;33.430;2023-11-21T10:44:21;30.75;30.75;15.25
30713;PMS7003;17465;47.934;33.430;2023-11-21T10:46:54;28.00;27.75;16.50
30713;PMS7003;17465;47.934;33.430;2023-11-21T10:49:30;37.50;34.50;19.50
30713;PMS7003;17465;47.934;33.430;2023-11-21T10:52:01;40.00;39.00;20.25
30713;PMS7003;17465;47.934;33.430;2023-11-21T10:55:19;28.25;26.00;14.00
30713;PMS7003;17465;47.934;33.430;2023-11-21T10:58:09;40.25;33.75;16.50
30713;PMS7003;17465;47.934;33.430;2023-11-21T11:00:45;34.75;32.75;16.00
30713;PMS7003;17465;47.934;33.430;2023-11-21T11:03:25;26.75;23.25;15.00
30713;PMS7003;17465;47.934;33.430;2023-11-21T11:09:28;43.25;38.00;21.25
30713;PMS7003;17465;47.934;33.430;2023-11-21T11:12:02;37.50;34.25;17.50
30713;PMS7003;17465;47.934;33.430;2023-11-21T11:14:51;29.25;27.75;15.00
30713;PMS7003;17465;47.934;33.430;2023-11-21T11:17:36;38.25;33.75;19.50
30713;PMS7003;17465;47.934;33.430;2023-11-21T11:20:12;36.50;35.25;19.00
30713;PMS7003;17465;47.934;33.430;2023-11-21T11:22:59;42.25;39.00;21.75
30713;PMS7003;17465;47.934;33.430;2023-11-21T11:31:26;48.50;42.50;22.00
30713;PMS7003;17465;47.934;33.430;2023-11-21T11:34:11;60.00;47.25;26.25
30713;PMS7003;17465;47.934;33.430;2023-11-21T11:36:44;44.50;40.50;24.00
30713;PMS7003;17465;47.934;33.430;2023-11-21T11:39:38;33.50;33.00;18.00
30713;PMS7003;17465;47.934;33.430;2023-11-21T11:42:13;40.25;39.25;22.00
30713;PMS7003;17465;47.934;33.430;2023-11-21T11:44:46;39.50;33.50;19.00
30713;PMS7003;17465;47.934;33.430;2023-11-21T11:50:21;34.75;30.50;16.75
30713;PMS7003;17465;47.934;33.430;2023-11-21T11:53:01;29.00;28.25;20.50
30713;PMS7003;17465;47.934;33.430;2023-11-21T11:55:43;38.50;36.00;26.25
30713;PMS7003;17465;47.934;33.430;2023-11-21T11:58:17;43.50;41.50;25.75
30713;PMS7003;17465;47.934;33.430;2023-11-21T12:00:46;40.75;35.75;23.75
30713;PMS7003;17465;47.934;33.430;2023-11-21T12:03:19;47.75;40.00;25.75
30713;PMS7003;17465;47.934;33.430;2023-11-21T12:05:50;34.75;31.00;20.50
30713;PMS7003;17465;47.934;33.430;2023-11-21T12:08:39;33.25;29.50;19.25
30713;PMS7003;17465;47.934;33.430;2023-11-21T12:11:05;38.00;32.50;18.00
30713;PMS7003;17465;47.934;33.430;2023-11-21T12:13:36;38.50;32.25;18.75
30713;PMS7003;17465;47.934;33.430;2023-11-21T12:16:15;27.75;27.50;16.75
30713;PMS7003;17465;47.934;33.430;2023-11-21T12:18:47;28.00;27.25;18.00
30713;PMS7003;17465;47.934;33.430;2023-11-21T12:21:20;32.75;31.25;20.00
30713;PMS7003;17465;47.934;33.430;2023-11-21T12:23:58;36.25;35.00;21.25
30713;PMS7003;17465;47.934;33.430;2023-11-21T12:26:30;36.50;31.75;21.50
30713;PMS7003;17465;47.934;33.430;2023-11-21T12:29:04;34.25;29.50;17.25
30713;PMS7003;17465;47.934;33.430;2023-11-21T12:31:39;37.50;35.50;22.75
30713;PMS7003;17465;47.934;33.430;2023-11-21T12:34:52;37.00;36.00;25.75
30713;PMS7003;17465;47.934;33.430;2023-11-21T12:37:21;48.00;40.75;26.75
30713;PMS7003;17465;47.934;33.430;2023-11-21T12:40:00;40.75;39.00;26.25
30713;PMS7003;17465;47.934;33.430;2023-11-21T12:42:38;41.25;40.00;28.25
30713;PMS7003;17465;47.934;33.430;2023-11-21T12:45:29;38.75;37.50;25.25
30713;PMS7003;17465;47.934;33.430;2023-11-21T12:48:02;54.00;45.25;31.75
30713;PMS7003;17465;47.934;33.430;2023-11-21T12:50:39;48.25;43.25;32.00
30713;PMS7003;17465;47.934;33.430;2023-11-21T12:53:15;50.00;44.50;29.25
30713;PMS7003;17465;47.934;33.430;2023-11-21T12:55:47;52.25;45.50;31.00
30713;PMS7003;17465;47.934;33.430;2023-11-21T12:58:26;50.25;46.00;35.00
30713;PMS7003;17465;47.934;33.430;2023-11-21T13:00:59;54.25;48.75;35.50
30713;PMS7003;17465;47.934;33.430;2023-11-21T13:06:29;52.75;46.00;30.00
30713;PMS7003;17465;47.934;33.430;2023-11-21T13:09:08;55.50;45.50;32.25
30713;PMS7003;17465;47.934;33.430;2023-11-21T13:11:48;51.00;43.75;29.50
30713;PMS7003;17465;47.934;33.430;2023-11-21T13:14:52;50.75;42.25;29.75
30713;PMS7003;17465;47.934;33.430;2023-11-21T13:17:06;39.25;36.75;23.75
30713;PMS7003;17465;47.934;33.430;2023-11-21T13:19:36;40.50;38.25;20.25
30713;PMS7003;17465;47.934;33.430;2023-11-21T13:22:08;42.50;37.25;22.00
30713;PMS7003;17465;47.934;33.430;2023-11-21T13:24:42;34.00;32.50;19.00
30713;PMS7003;17465;47.934;33.430;2023-11-21T13:27:14;28.25;27.25;15.25
30713;PMS7003;17465;47.934;33.430;2023-11-21T13:29:45;35.50;33.25;20.25
30713;PMS7003;17465;47.934;33.430;2023-11-21T13:32:15;34.25;31.25;17.75
30713;PMS7003;17465;47.934;33.430;2023-11-21T13:34:45;41.25;34.00;20.50
30713;PMS7003;17465;47.934;33.430;2023-11-21T13:37:20;34.75;32.00;19.50
30713;PMS7003;17465;47.934;33.430;2023-11-21T13:39:50;33.25;31.00;17.00
30713;PMS7003;17465;47.934;33.430;2023-11-21T13:42:21;34.00;26.75;16.25
30713;PMS7003;17465;47.934;33.430;2023-11-21T13:44:57;36.00;31.75;15.00
30713;PMS7003;17465;47.934;33.430;2023-11-21T13:47:27;34.25;29.50;17.00
30713;PMS7003;17465;47.934;33.430;2023-11-21T13:50:01;32.75;30.00;18.00
30713;PMS7003;17465;47.934;33.430;2023-11-21T13:52:32;33.00;28.25;15.50
30713;PMS7003;17465;47.934;33.430;2023-11-21T13:55:02;32.00;30.75;17.50
30713;PMS7003;17465;47.934;33.430;2023-11-21T13:57:34;29.50;27.50;13.00
30713;PMS7003;17465;47.934;33.430;2023-11-21T14:00:05;33.50;30.25;18.00
30713;PMS7003;17465;47.934;33.430;2023-11-21T14:02:37;37.00;32.25;20.50
30713;PMS7003;17465;47.934;33.430;2023-11-21T14:05:07;29.00;28.00;17.00
30713;PMS7003;17465;47.934;33.430;2023-11-21T14:07:38;46.25;37.50;20.75
30713;PMS7003;17465;47.934;33.430;2023-11-21T14:10:08;35.25;31.25;17.00
30713;PMS7003;17465;47.934;33.430;2023-11-21T14:12:39;38.50;35.25;17.50
30713;PMS7003;17465;47.934;33.430;2023-11-21T14:15:09;37.25;32.00;16.75
30713;PMS7003;17465;47.934;33.430;2023-11-21T14:17:41;14.50;12.50;1.75
30713;PMS7003;17465;47.934;33.430;2023-11-21T14:20:11;40.00;33.00;17.25
30713;PMS7003;17465;47.934;33.430;2023-11-21T14:22:51;32.25;30.25;17.50
30713;PMS7003;17465;47.934;33.430;2023-11-21T14:25:20;34.25;33.00;16.25
30713;PMS7003;17465;47.934;33.430;2023-11-21T14:27:57;37.50;34.00;18.25
30713;PMS7003;17465;47.934;33.430;2023-11-21T14:30:25;36.25;30.00;13.00
30713;PMS7003;17465;47.934;33.430;2023-11-21T14:33:43;33.50;31.25;16.25
30713;PMS7003;17465;47.934;33.430;2023-11-21T14:35:54;30.00;24.75;11.50
30713;PMS7003;17465;47.934;33.430;2023-11-21T14:38:28;32.75;32.25;20.25